Time;durP1;ratioP1;P1;durP2;ratioP2;P2;SDS_P1;SDS_P2;PMS_P1;PMS_P2;Temp;Humidity;BMP_temperature;BMP_pressure;BME280_temperature;BME280_humidity;BME280_pressure;Samples;Min_cycle;Max_cycle;Signal;HPM_P1;HPM_P2
2021/03/17 00:00:38;;;;;;;0.30;0.10;;;4.90;99.90;;;;;;5074423;28;20527;-76
2021/03/17 00:03:04;;;;;;;0.20;0.10;;;4.90;99.90;;;;;;5057108;28;20039;-77
2021/03/17 00:05:32;;;;;;;0.10;0.10;;;4.90;99.90;;;;;;5056906;28;20370;-77
2021/03/17 00:07:58;;;;;;;0.20;0.05;;;4.80;99.90;;;;;;5056620;28;20017;-77
2021/03/17 00:10:25;;;;;;;0.40;0.20;;;4.80;99.90;;;;;;5056904;28;20115;-77
2021/03/17 00:12:55;;;;;;;0.43;0.25;;;4.80;99.90;;;;;;5056829;28;20020;-77
2021/03/17 00:15:22;;;;;;;0.45;0.10;;;4.80;99.90;;;;;;5074419;28;20027;-77
2021/03/17 00:17:47;;;;;;;1.75;0.10;;;4.80;99.90;;;;;;5056367;28;20115;-76
2021/03/17 00:20:14;;;;;;;0.73;0.10;;;4.80;99.90;;;;;;5074547;28;20504;-74
2021/03/17 00:22:39;;;;;;;1.45;0.85;;;4.80;99.90;;;;;;5074007;28;20043;-76
2021/03/17 00:25:06;;;;;;;0.88;0.20;;;4.80;99.90;;;;;;5056568;28;20069;-76
2021/03/17 00:27:32;;;;;;;1.63;0.60;;;4.80;99.90;;;;;;5055753;28;20067;-78
2021/03/17 00:29:58;;;;;;;1.00;0.47;;;4.90;99.90;;;;;;5055980;28;20021;-76
2021/03/17 00:32:27;;;;;;;1.70;0.57;;;4.90;99.90;;;;;;5056048;28;20041;-76
2021/03/17 00:34:52;;;;;;;;;;;4.90;99.90;;;;;;5074558;28;20059;-75
2021/03/17 00:37:18;;;;;;;0.45;0.20;;;4.90;99.90;;;;;;5074764;28;20283;-74
2021/03/17 00:39:44;;;;;;;1.35;0.57;;;4.90;99.90;;;;;;5056683;28;20043;-76
2021/03/17 00:42:10;;;;;;;1.30;0.38;;;4.90;99.90;;;;;;5074110;28;20024;-74
2021/03/17 00:44:35;;;;;;;0.43;0.22;;;5.00;99.90;;;;;;5046535;23;20041;-76
2021/03/17 00:47:01;;;;;;;0.63;0.15;;;5.00;99.90;;;;;;5032545;28;20108;-75
2021/03/17 00:49:27;;;;;;;1.20;0.20;;;5.00;99.90;;;;;;5034572;28;20025;-78
2021/03/17 00:51:52;;;;;;;0.38;0.08;;;5.00;99.90;;;;;;5034425;28;20143;-74
2021/03/17 00:54:18;;;;;;;0.17;0.00;;;5.00;99.90;;;;;;5033802;28;20171;-76
2021/03/17 00:56:43;;;;;;;0.65;0.20;;;5.00;99.90;;;;;;5034654;28;20028;-77
2021/03/17 00:59:09;;;;;;;0.45;0.10;;;5.00;99.90;;;;;;5034276;28;20112;-77
2021/03/17 01:01:34;;;;;;;0.98;0.00;;;5.00;99.90;;;;;;5032358;28;20029;-77
2021/03/17 01:04:00;;;;;;;0.55;0.00;;;5.00;99.90;;;;;;5034151;28;20366;-78
2021/03/17 01:06:25;;;;;;;0.00;0.00;;;5.00;99.90;;;;;;5032822;28;20024;-77
2021/03/17 01:08:51;;;;;;;0.10;0.00;;;4.90;99.90;;;;;;5032808;28;20108;-78
2021/03/17 01:11:16;;;;;;;0.85;0.00;;;5.00;99.90;;;;;;5034354;28;20051;-74
2021/03/17 01:13:42;;;;;;;0.00;0.00;;;4.90;99.90;;;;;;5033894;28;20451;-76
2021/03/17 01:16:08;;;;;;;0.00;0.00;;;4.90;99.90;;;;;;5033803;28;20029;-77
2021/03/17 01:18:33;;;;;;;0.10;0.00;;;4.90;99.90;;;;;;5032487;28;20026;-74
2021/03/17 01:20:59;;;;;;;2.55;0.52;;;4.90;99.90;;;;;;5047026;23;20132;-77
2021/03/17 01:23:25;;;;;;;0.25;0.00;;;4.90;99.90;;;;;;5016322;28;20025;-74
2021/03/17 01:25:50;;;;;;;0.00;0.00;;;4.90;99.90;;;;;;5033970;28;20017;-76
2021/03/17 01:28:16;;;;;;;0.00;0.00;;;4.90;99.90;;;;;;5034141;28;20436;-75
2021/03/17 01:30:45;;;;;;;0.10;0.00;;;4.90;99.90;;;;;;5033901;28;20029;-76
2021/03/17 01:33:11;;;;;;;0.00;0.00;;;4.90;99.90;;;;;;5033588;28;20029;-76
2021/03/17 01:35:38;;;;;;;0.00;0.00;;;4.90;99.90;;;;;;5033761;28;20501;-75
2021/03/17 01:38:05;;;;;;;0.22;0.00;;;4.90;99.90;;;;;;5035186;28;20022;-76
2021/03/17 01:40:32;;;;;;;2.53;0.10;;;4.90;99.90;;;;;;5019733;28;20048;-76
2021/03/17 01:42:58;;;;;;;0.10;0.10;;;4.90;99.90;;;;;;5038219;28;20104;-76
2021/03/17 01:45:24;;;;;;;0.30;0.00;;;4.90;99.90;;;;;;5037635;28;20109;-76
2021/03/17 01:47:51;;;;;;;0.47;0.10;;;4.80;99.90;;;;;;5038439;28;20049;-76
2021/03/17 01:50:29;;;;;;;0.10;0.10;;;4.80;99.90;;;;;;5037589;28;20025;-76
2021/03/17 01:52:58;;;;;;;0.25;0.15;;;4.80;99.90;;;;;;5020245;28;20025;-75
2021/03/17 01:55:24;;;;;;;0.80;0.20;;;4.80;99.90;;;;;;5019571;28;20013;-75
2021/03/17 01:57:50;;;;;;;0.65;0.17;;;4.80;99.90;;;;;;5037428;28;20048;-76
2021/03/17 02:00:18;;;;;;;1.67;0.22;;;4.80;99.90;;;;;;5019209;28;20434;-77
2021/03/17 02:02:50;;;;;;;1.00;0.40;;;4.80;99.90;;;;;;5037273;28;20037;-76
2021/03/17 02:05:18;;;;;;;0.20;0.00;;;4.80;99.90;;;;;;5019315;28;20017;-76
2021/03/17 02:07:43;;;;;;;0.20;0.00;;;4.80;99.90;;;;;;5019230;28;20368;-75
2021/03/17 02:10:15;;;;;;;0.20;0.10;;;4.80;99.90;;;;;;5019425;28;20072;-77
2021/03/17 02:13:23;;;;;;;0.60;0.10;;;4.80;99.90;;;;;;5037048;28;20017;-76
2021/03/17 02:16:02;;;;;;;0.20;0.00;;;4.80;99.90;;;;;;5037031;28;20101;-74
2021/03/17 02:18:56;;;;;;;0.43;0.00;;;4.80;99.90;;;;;;5019081;28;20429;-77
2021/03/17 02:21:53;;;;;;;0.20;0.10;;;4.80;99.90;;;;;;5036506;28;20487;-78
2021/03/17 02:24:27;;;;;;;0.40;0.00;;;4.80;99.90;;;;;;5037027;28;20096;-77
2021/03/17 02:27:30;;;;;;;0.75;0.15;;;4.80;99.90;;;;;;5018820;28;20391;-77
2021/03/17 02:30:22;;;;;;;0.20;0.00;;;4.90;99.90;;;;;;5036304;28;20390;-76
2021/03/17 02:33:11;;;;;;;0.50;0.30;;;4.90;99.90;;;;;;5036611;28;20029;-77
2021/03/17 02:35:38;;;;;;;1.10;0.17;;;4.90;99.90;;;;;;5018637;28;20029;-75
2021/03/17 02:38:07;;;;;;;0.55;0.00;;;4.90;99.90;;;;;;5018580;28;20036;-78
2021/03/17 02:40:36;;;;;;;0.60;0.08;;;4.90;99.90;;;;;;5036516;28;20037;-76
2021/03/17 02:43:25;;;;;;;0.20;0.05;;;4.90;99.90;;;;;;5018433;28;20081;-75
2021/03/17 02:45:56;;;;;;;0.47;0.00;;;5.00;99.90;;;;;;5036629;28;20030;-76
2021/03/17 02:48:30;;;;;;;0.25;0.10;;;5.00;99.90;;;;;;5018173;28;20025;-77
2021/03/17 02:51:01;;;;;;;1.63;0.60;;;4.90;99.90;;;;;;5035731;28;20029;-77
2021/03/17 02:53:28;;;;;;;1.42;0.50;;;5.00;99.90;;;;;;5018707;28;20025;-79
2021/03/17 02:56:02;;;;;;;1.58;0.10;;;5.00;99.90;;;;;;5035957;28;20067;-75
2021/03/17 02:58:29;;;;;;;0.95;0.10;;;5.00;99.90;;;;;;5036273;28;20435;-76
2021/03/17 03:00:57;;;;;;;0.75;0.60;;;5.10;99.90;;;;;;5036459;28;20053;-74
2021/03/17 03:03:26;;;;;;;0.43;0.20;;;5.00;99.90;;;;;;5018216;28;20025;-78
2021/03/17 03:05:55;;;;;;;1.20;0.20;;;5.00;99.90;;;;;;5018231;28;20013;-76
2021/03/17 03:08:22;;;;;;;0.20;0.20;;;5.10;99.90;;;;;;5018327;28;20433;-77
2021/03/17 03:10:47;;;;;;;2.17;0.30;;;5.10;99.90;;;;;;5036003;28;20036;-76
2021/03/17 03:13:13;;;;;;;0.70;0.13;;;5.10;99.90;;;;;;5018521;28;20033;-78
2021/03/17 03:15:39;;;;;;;1.80;0.40;;;5.00;99.90;;;;;;5017986;28;20056;-77
2021/03/17 03:18:06;;;;;;;2.30;0.10;;;5.10;99.90;;;;;;5017903;28;20021;-76
2021/03/17 03:20:34;;;;;;;0.60;0.43;;;5.00;99.90;;;;;;5017661;28;20380;-78
2021/03/17 03:23:02;;;;;;;0.85;0.30;;;5.10;99.90;;;;;;5017641;28;20033;-78
2021/03/17 03:25:28;;;;;;;1.63;0.60;;;5.10;99.90;;;;;;5036201;28;20009;-78
2021/03/17 03:27:55;;;;;;;1.25;0.80;;;5.00;99.90;;;;;;5036913;28;20025;-75
2021/03/17 03:30:25;;;;;;;1.20;0.90;;;5.00;99.90;;;;;;5037880;28;20525;-79
2021/03/17 03:32:52;;;;;;;2.55;1.33;;;5.00;99.90;;;;;;5017634;28;20109;-78
2021/03/17 03:35:19;;;;;;;2.22;1.20;;;5.10;99.90;;;;;;5017627;28;20453;-78
2021/03/17 03:37:45;;;;;;;4.03;2.45;;;5.10;99.90;;;;;;5035150;28;20474;-76
2021/03/17 03:40:14;;;;;;;3.65;1.33;;;5.10;99.90;;;;;;5035391;28;20144;-76
2021/03/17 03:42:40;;;;;;;;;;;5.00;99.90;;;;;;5017449;28;20022;-77
2021/03/17 03:45:09;;;;;;;3.30;1.67;;;5.10;99.90;;;;;;5035077;28;20282;-76
2021/03/17 03:47:34;;;;;;;;;;;5.10;99.90;;;;;;5035456;28;20052;-75
2021/03/17 03:50:00;;;;;;;2.42;1.45;;;5.00;99.90;;;;;;5016841;28;19909;-78
2021/03/17 03:53:08;;;;;;;3.38;1.48;;;5.10;99.90;;;;;;5035642;28;20534;-78
2021/03/17 03:55:49;;;;;;;2.55;0.88;;;5.10;99.90;;;;;;5017075;28;20043;-74
2021/03/17 03:58:24;;;;;;;2.92;1.23;;;5.10;99.90;;;;;;5034997;28;20024;-78
2021/03/17 04:00:56;;;;;;;1.50;1.25;;;5.10;99.90;;;;;;5016632;28;20029;-77
2021/03/17 04:03:24;;;;;;;4.15;1.45;;;5.20;99.90;;;;;;5016791;28;20113;-77
2021/03/17 04:05:52;;;;;;;2.30;1.10;;;5.10;99.90;;;;;;5017057;28;20018;-74
2021/03/17 04:08:19;;;;;;;2.30;1.25;;;5.10;99.90;;;;;;5034554;28;20017;-75
2021/03/17 04:10:54;;;;;;;2.13;1.52;;;5.10;99.90;;;;;;5034653;28;20026;-77
2021/03/17 04:13:22;;;;;;;7.45;2.15;;;5.10;99.90;;;;;;5035354;28;20026;-77
2021/03/17 04:15:49;;;;;;;1.73;1.20;;;5.10;99.90;;;;;;5016974;28;20018;-75
2021/03/17 04:18:16;;;;;;;2.03;1.10;;;5.10;99.90;;;;;;5034747;28;20025;-77
2021/03/17 04:20:45;;;;;;;2.22;1.38;;;5.10;99.90;;;;;;5033727;28;20030;-77
2021/03/17 04:23:12;;;;;;;3.25;1.45;;;5.20;99.90;;;;;;5016489;28;20013;-78
2021/03/17 04:25:43;;;;;;;0.90;0.88;;;5.20;99.90;;;;;;5034476;28;20014;-78
2021/03/17 04:28:13;;;;;;;2.50;1.27;;;5.20;99.90;;;;;;5034895;28;20455;-78
2021/03/17 04:30:39;;;;;;;2.17;1.00;;;5.20;99.90;;;;;;5034274;28;20022;-78
2021/03/17 04:33:05;;;;;;;1.98;0.88;;;5.20;99.90;;;;;;5033882;28;20025;-78
2021/03/17 04:35:31;;;;;;;3.92;0.45;;;5.20;99.90;;;;;;5019216;28;20402;-77
2021/03/17 04:37:57;;;;;;;2.30;0.52;;;5.30;99.90;;;;;;5034261;28;20044;-77
2021/03/17 04:40:24;;;;;;;1.75;0.10;;;5.20;99.90;;;;;;5016246;28;20014;-77
2021/03/17 04:42:50;;;;;;;0.57;0.10;;;5.20;99.90;;;;;;5034860;28;20021;-78
2021/03/17 04:45:16;;;;;;;1.90;0.10;;;5.30;99.90;;;;;;5035005;28;20048;-78
2021/03/17 04:47:44;;;;;;;0.20;0.00;;;5.30;99.90;;;;;;5035337;28;20037;-77
2021/03/17 04:50:16;;;;;;;0.20;0.10;;;5.30;99.90;;;;;;5034506;28;20029;-78
2021/03/17 04:52:43;;;;;;;1.67;0.10;;;5.30;99.90;;;;;;5039332;28;20435;-79
2021/03/17 04:55:11;;;;;;;0.47;0.00;;;5.30;99.90;;;;;;5034814;28;20470;-77
2021/03/17 04:57:39;;;;;;;0.10;0.00;;;5.30;99.90;;;;;;5034491;28;20083;-76
2021/03/17 05:00:10;;;;;;;1.15;0.10;;;5.40;99.90;;;;;;5034983;28;20029;-76
2021/03/17 05:02:39;;;;;;;0.10;0.00;;;5.30;99.90;;;;;;5016761;28;20033;-75
2021/03/17 05:05:07;;;;;;;0.65;0.10;;;5.30;99.90;;;;;;5033560;28;20113;-76
2021/03/17 05:07:33;;;;;;;0.45;0.10;;;5.30;99.90;;;;;;5034664;28;20144;-74
2021/03/17 05:09:59;;;;;;;0.90;0.05;;;5.30;99.90;;;;;;5034641;28;20088;-77
2021/03/17 05:12:26;;;;;;;0.47;0.00;;;5.30;99.90;;;;;;5033828;28;20033;-73
2021/03/17 05:14:53;;;;;;;3.00;1.02;;;5.30;99.90;;;;;;5075258;23;20377;-76
2021/03/17 05:17:20;;;;;;;2.92;0.55;;;5.30;99.90;;;;;;5082698;28;20077;-75
2021/03/17 05:19:46;;;;;;;0.10;0.00;;;5.30;99.90;;;;;;5094938;28;20032;-76
2021/03/17 05:22:12;;;;;;;0.00;0.00;;;5.40;99.90;;;;;;5094989;28;20499;-75
2021/03/17 05:24:38;;;;;;;5.53;0.10;;;5.30;99.90;;;;;;5093833;28;20021;-74
2021/03/17 05:27:08;;;;;;;0.15;0.00;;;5.30;99.90;;;;;;5075191;28;20504;-76
2021/03/17 05:29:35;;;;;;;0.65;0.00;;;5.40;99.90;;;;;;5072579;28;20035;-76
2021/03/17 05:32:03;;;;;;;0.32;0.00;;;5.40;99.90;;;;;;5086291;28;20056;-76
2021/03/17 05:34:29;;;;;;;0.35;0.00;;;5.40;99.90;;;;;;5084962;23;20044;-76
2021/03/17 05:36:54;;;;;;;0.60;0.05;;;5.30;99.90;;;;;;5054367;28;20146;-76
2021/03/17 05:39:20;;;;;;;0.43;0.00;;;5.30;99.90;;;;;;5073380;28;20431;-75
2021/03/17 05:41:47;;;;;;;0.00;0.00;;;5.30;99.90;;;;;;5055417;28;20079;-75
2021/03/17 05:44:13;;;;;;;0.57;0.00;;;5.30;99.90;;;;;;5055615;28;20020;-76
2021/03/17 05:46:42;;;;;;;1.13;0.00;;;5.30;99.90;;;;;;5054834;28;20143;-76
2021/03/17 05:49:09;;;;;;;;;;;5.30;99.90;;;;;;5073525;28;20021;-76
2021/03/17 05:51:35;;;;;;;1.05;0.00;;;5.30;99.90;;;;;;5073544;28;19904;-75
2021/03/17 05:54:01;;;;;;;3.03;0.10;;;5.30;99.90;;;;;;5055127;28;20086;-77
2021/03/17 05:56:29;;;;;;;0.43;0.00;;;5.30;99.90;;;;;;5067762;28;20033;-75
2021/03/17 05:58:55;;;;;;;0.45;0.32;;;5.30;99.90;;;;;;5035606;28;20067;-74
2021/03/17 06:01:21;;;;;;;0.17;0.17;;;5.30;99.90;;;;;;5053270;28;20494;-74
2021/03/17 06:03:47;;;;;;;0.40;0.10;;;5.20;99.90;;;;;;5053247;28;20059;-77
2021/03/17 06:06:15;;;;;;;0.50;0.13;;;5.20;99.90;;;;;;5039453;28;20032;-74
2021/03/17 06:08:45;;;;;;;0.43;0.00;;;5.20;99.90;;;;;;5054703;28;20017;-77
2021/03/17 06:11:15;;;;;;;6.85;0.50;;;5.20;99.90;;;;;;5035064;28;20029;-77
2021/03/17 06:13:48;;;;;;;0.32;0.30;;;5.20;99.90;;;;;;5035304;28;20036;-74
2021/03/17 06:16:16;;;;;;;1.17;0.10;;;5.20;99.90;;;;;;5060053;28;20025;-77
2021/03/17 06:18:44;;;;;;;4.78;0.98;;;5.20;99.90;;;;;;5054216;28;20502;-76
2021/03/17 06:21:17;;;;;;;1.88;0.00;;;5.20;99.90;;;;;;5047631;28;20039;-74
2021/03/17 06:23:43;;;;;;;0.22;0.00;;;5.20;99.90;;;;;;5072763;28;20027;-74
2021/03/17 06:26:09;;;;;;;4.65;0.45;;;5.20;99.90;;;;;;5075566;28;20103;-77
2021/03/17 06:28:35;;;;;;;0.57;0.10;;;5.20;99.90;;;;;;5058563;28;20474;-74
2021/03/17 06:31:01;;;;;;;1.02;0.25;;;5.20;99.90;;;;;;5074895;28;20036;-75
2021/03/17 06:33:26;;;;;;;0.63;0.00;;;5.20;99.90;;;;;;5056426;28;20029;-74
2021/03/17 06:36:12;;;;;;;0.22;0.17;;;5.30;99.90;;;;;;5058039;28;20424;-75
2021/03/17 06:38:37;;;;;;;5.82;0.43;;;5.30;99.90;;;;;;5056185;28;20027;-74
2021/03/17 06:41:03;;;;;;;0.93;0.10;;;5.30;99.90;;;;;;5063351;28;20396;-72
2021/03/17 06:43:46;;;;;;;0.93;0.13;;;5.30;99.90;;;;;;5076300;28;20406;-72
2021/03/17 06:46:17;;;;;;;0.10;0.00;;;5.30;99.90;;;;;;5077155;28;20028;-74
2021/03/17 06:48:43;;;;;;;1.10;0.20;;;5.30;99.90;;;;;;5064589;28;20060;-73
2021/03/17 06:51:17;;;;;;;0.90;0.00;;;5.30;99.90;;;;;;5069465;28;20021;-73
2021/03/17 06:53:43;;;;;;;2.15;0.00;;;5.30;99.90;;;;;;5059970;28;20024;-75
2021/03/17 06:56:20;;;;;;;0.13;0.00;;;5.30;99.90;;;;;;5045097;28;20482;-74
2021/03/17 06:58:58;;;;;;;0.88;0.00;;;5.30;99.90;;;;;;5058475;28;20041;-72
2021/03/17 07:01:26;;;;;;;3.03;0.00;;;5.30;99.90;;;;;;5061127;28;20028;-74
2021/03/17 07:04:03;;;;;;;2.72;0.00;;;5.30;99.90;;;;;;5057361;28;20021;-75
2021/03/17 07:06:29;;;;;;;3.00;0.00;;;5.30;99.90;;;;;;5057504;28;20025;-73
2021/03/17 07:08:56;;;;;;;3.58;0.65;;;5.30;99.90;;;;;;5057244;28;20044;-74
2021/03/17 07:11:22;;;;;;;1.92;0.00;;;5.30;99.90;;;;;;5056732;28;20021;-75
2021/03/17 07:14:00;;;;;;;2.08;0.00;;;5.30;99.90;;;;;;5063109;28;20054;-75
2021/03/17 07:16:36;;;;;;;1.52;0.00;;;5.20;99.90;;;;;;5077508;28;20025;-74
2021/03/17 07:19:03;;;;;;;0.40;0.08;;;5.30;99.90;;;;;;5079323;28;20497;-73
2021/03/17 07:21:30;;;;;;;0.98;0.10;;;5.40;99.90;;;;;;5078839;28;20029;-77
2021/03/17 07:23:56;;;;;;;1.00;0.00;;;5.40;99.90;;;;;;5055813;28;20474;-72
2021/03/17 07:26:29;;;;;;;1.25;0.00;;;5.40;99.90;;;;;;5041178;28;20031;-71
2021/03/17 07:29:15;;;;;;;2.38;0.00;;;5.50;99.90;;;;;;5057729;28;20012;-73
2021/03/17 07:31:48;;;;;;;2.58;0.10;;;5.50;99.90;;;;;;5062365;28;20374;-79
2021/03/17 07:34:19;;;;;;;3.13;0.00;;;5.50;99.90;;;;;;5070650;28;20032;-77
2021/03/17 07:36:46;;;;;;;1.05;0.10;;;5.60;99.90;;;;;;5075996;28;20477;-75
2021/03/17 07:39:28;;;;;;;1.05;0.00;;;5.70;99.90;;;;;;5078225;28;20493;-76
2021/03/17 07:41:59;;;;;;;2.45;0.45;;;5.70;99.90;;;;;;5058218;28;20444;-75
2021/03/17 07:44:25;;;;;;;0.85;0.20;;;5.70;99.90;;;;;;5081348;28;20020;-72
2021/03/17 07:46:54;;;;;;;0.55;0.00;;;5.60;99.90;;;;;;5077323;28;20048;-75
2021/03/17 07:49:19;;;;;;;0.57;0.00;;;5.50;99.90;;;;;;5075728;28;20020;-76
2021/03/17 07:51:49;;;;;;;0.73;0.00;;;5.50;99.90;;;;;;5078607;28;20112;-75
2021/03/17 07:54:36;;;;;;;0.98;0.20;;;5.40;99.90;;;;;;5078143;28;20035;-75
2021/03/17 07:57:07;;;;;;;0.20;0.00;;;5.40;99.90;;;;;;5058416;28;20451;-75
2021/03/17 07:59:36;;;;;;;0.32;0.00;;;5.40;99.90;;;;;;5058062;28;20366;-74
2021/03/17 08:02:02;;;;;;;;;;;5.30;99.90;;;;;;5078569;28;20028;-77
2021/03/17 08:04:33;;;;;;;1.33;0.00;;;5.30;99.90;;;;;;5075432;28;20269;-74
2021/03/17 08:07:01;;;;;;;0.20;0.00;;;5.30;99.90;;;;;;5058141;28;20116;-78
2021/03/17 08:09:27;;;;;;;0.00;0.00;;;5.30;99.90;;;;;;5075969;28;20439;-78
2021/03/17 08:11:57;;;;;;;1.55;0.00;;;5.30;99.90;;;;;;5077630;28;20052;-74
2021/03/17 08:14:24;;;;;;;1.30;0.00;;;5.40;99.90;;;;;;5078615;28;20071;-76
2021/03/17 08:16:51;;;;;;;0.00;0.00;;;5.30;99.90;;;;;;5074971;28;20027;-78
2021/03/17 08:19:20;;;;;;;0.00;0.00;;;5.30;99.90;;;;;;5076007;28;20054;-75
2021/03/17 08:22:11;;;;;;;5.53;0.00;;;5.20;99.90;;;;;;5057275;28;20032;-74
2021/03/17 08:24:39;;;;;;;0.52;0.25;;;5.20;99.90;;;;;;5076115;28;20032;-77
2021/03/17 08:27:07;;;;;;;1.65;0.00;;;5.40;99.90;;;;;;5057741;28;20020;-76
2021/03/17 08:29:46;;;;;;;2.28;0.20;;;5.50;99.90;;;;;;5079582;28;20565;-75
2021/03/17 08:32:14;;;;;;;1.45;0.00;;;5.80;99.90;;;;;;5077733;28;20016;-74
2021/03/17 08:34:40;;;;;;;0.25;0.00;;;6.00;99.90;;;;;;5077093;28;20406;-77
2021/03/17 08:37:09;;;;;;;0.40;0.00;;;6.20;99.90;;;;;;5060281;28;20115;-73
2021/03/17 08:39:42;;;;;;;0.75;0.03;;;6.30;99.90;;;;;;5078382;28;20025;-73
2021/03/17 08:42:28;;;;;;;1.75;0.00;;;6.20;99.90;;;;;;5077754;28;20091;-74
2021/03/17 08:45:00;;;;;;;2.53;0.00;;;6.20;99.90;;;;;;5080691;28;20028;-73
2021/03/17 08:47:42;;;;;;;0.10;0.10;;;6.20;99.90;;;;;;5075316;28;20493;-76
2021/03/17 08:50:21;;;;;;;3.35;0.45;;;6.20;99.90;;;;;;5074765;28;20039;-76
2021/03/17 08:52:48;;;;;;;;;;;6.30;99.90;;;;;;5075424;28;20075;-75
2021/03/17 08:55:14;;;;;;;3.10;0.00;;;6.30;99.90;;;;;;5077743;28;20010;-75
2021/03/17 08:57:49;;;;;;;2.78;0.10;;;6.30;99.90;;;;;;5077760;28;20028;-76
2021/03/17 09:00:42;;;;;;;0.03;0.00;;;6.20;99.90;;;;;;5075674;28;20020;-76
2021/03/17 09:03:09;;;;;;;2.55;0.00;;;6.10;99.90;;;;;;5076435;28;20059;-78
2021/03/17 09:05:35;;;;;;;1.35;0.30;;;6.00;99.90;;;;;;5079366;28;20031;-73
2021/03/17 09:08:09;;;;;;;0.10;0.00;;;6.00;99.90;;;;;;5074798;28;20036;-78
2021/03/17 09:10:44;;;;;;;3.45;0.03;;;6.10;99.90;;;;;;5075298;28;20028;-78
2021/03/17 09:13:11;;;;;;;2.00;0.00;;;6.20;99.90;;;;;;5075760;28;20377;-76
2021/03/17 09:15:46;;;;;;;0.52;0.00;;;6.40;99.90;;;;;;5074959;28;20052;-74
2021/03/17 09:18:13;;;;;;;1.30;0.00;;;6.50;99.90;;;;;;5056729;28;20508;-77
2021/03/17 09:20:49;;;;;;;1.33;0.00;;;6.60;99.90;;;;;;5077801;28;20021;-76
2021/03/17 09:23:22;;;;;;;4.05;0.10;;;6.70;99.90;;;;;;5076160;28;20017;-78
2021/03/17 09:25:54;;;;;;;3.78;0.05;;;6.80;99.90;;;;;;5057931;28;20141;-78
2021/03/17 09:28:29;;;;;;;1.08;0.20;;;6.90;99.90;;;;;;5056748;28;20017;-76
2021/03/17 09:31:04;;;;;;;2.83;0.00;;;7.00;99.90;;;;;;5075595;28;20078;-75
2021/03/17 09:33:35;;;;;;;2.50;0.00;;;7.00;99.90;;;;;;5073946;28;20032;-77
2021/03/17 09:36:14;;;;;;;3.55;0.00;;;7.10;99.90;;;;;;5056915;28;20056;-77
2021/03/17 09:38:42;;;;;;;4.38;0.10;;;7.20;99.90;;;;;;5056539;28;20017;-76
2021/03/17 09:41:12;;;;;;;2.55;0.00;;;7.30;99.90;;;;;;5073491;28;20120;-77
2021/03/17 09:43:45;;;;;;;4.88;0.43;;;7.40;99.90;;;;;;5074062;28;20031;-77
2021/03/17 09:46:23;;;;;;;2.40;0.00;;;7.40;99.90;;;;;;5056364;28;20027;-77
2021/03/17 09:48:52;;;;;;;2.30;0.00;;;7.40;99.90;;;;;;5073569;28;20025;-77
2021/03/17 09:51:20;;;;;;;1.15;0.00;;;7.40;99.90;;;;;;5056467;28;20024;-74
2021/03/17 09:53:47;;;;;;;3.13;0.00;;;7.40;99.90;;;;;;5075849;28;20036;-78
2021/03/17 09:56:13;;;;;;;0.32;0.00;;;7.40;99.90;;;;;;5077096;28;20103;-77
2021/03/17 09:58:39;;;;;;;1.13;0.00;;;7.40;99.90;;;;;;5075983;28;20037;-79
2021/03/17 10:01:13;;;;;;;5.80;0.35;;;7.50;99.90;;;;;;5059359;28;20565;-77
2021/03/17 10:03:46;;;;;;;0.73;0.17;;;7.50;99.90;;;;;;5077895;28;20036;-75
2021/03/17 10:06:15;;;;;;;2.88;0.47;;;7.50;99.90;;;;;;5059432;28;20031;-76
2021/03/17 10:08:41;;;;;;;1.42;0.00;;;7.60;99.90;;;;;;5077890;28;20478;-80
2021/03/17 10:11:13;;;;;;;0.85;0.00;;;7.80;99.90;;;;;;5078891;28;20064;-77
2021/03/17 10:13:39;;;;;;;1.80;0.08;;;7.70;99.90;;;;;;5058778;28;20066;-77
2021/03/17 10:16:06;;;;;;;1.73;0.00;;;7.80;99.90;;;;;;5077952;28;20020;-78
2021/03/17 10:18:32;;;;;;;2.53;0.20;;;7.80;99.90;;;;;;5058971;28;20134;-77
2021/03/17 10:20:58;;;;;;;0.65;0.00;;;7.80;99.90;;;;;;5059396;28;20503;-76
2021/03/17 10:23:24;;;;;;;4.80;0.00;;;7.80;99.90;;;;;;5077074;28;20051;-77
2021/03/17 10:25:50;;;;;;;1.55;0.10;;;7.80;99.90;;;;;;5058811;28;20021;-79
2021/03/17 10:28:17;;;;;;;2.25;0.10;;;7.90;99.90;;;;;;5076798;28;20044;-76
2021/03/17 10:30:49;;;;;;;1.17;0.00;;;8.00;99.90;;;;;;5058558;28;20426;-77
2021/03/17 10:33:19;;;;;;;6.93;0.30;;;8.00;99.90;;;;;;5076219;28;20036;-78
2021/03/17 10:35:47;;;;;;;1.30;0.00;;;7.90;99.90;;;;;;5076316;28;20052;-77
2021/03/17 10:38:12;;;;;;;11.18;0.90;;;7.90;99.90;;;;;;5076670;28;20032;-77
2021/03/17 10:40:39;;;;;;;1.98;0.20;;;7.70;99.90;;;;;;5076142;28;20020;-76
2021/03/17 10:43:10;;;;;;;3.90;0.52;;;7.70;99.90;;;;;;5058404;28;20366;-78
2021/03/17 10:45:48;;;;;;;0.82;0.00;;;7.60;99.90;;;;;;5076461;28;20027;-76
2021/03/17 10:48:17;;;;;;;1.15;0.00;;;7.40;99.90;;;;;;5058899;28;20028;-77
2021/03/17 10:50:43;;;;;;;4.25;0.10;;;7.40;99.90;;;;;;5076483;28;20016;-77
2021/03/17 10:53:29;;;;;;;1.10;0.00;;;7.40;99.90;;;;;;5077897;28;20549;-79
2021/03/17 10:55:58;;;;;;;2.60;0.00;;;7.60;99.90;;;;;;5078893;28;20034;-77
2021/03/17 10:58:28;;;;;;;2.40;0.00;;;7.50;99.90;;;;;;5076484;28;20029;-77
2021/03/17 11:00:56;;;;;;;1.25;0.00;;;7.60;99.90;;;;;;5059231;28;20016;-79
2021/03/17 11:03:28;;;;;;;3.20;0.47;;;7.60;99.90;;;;;;5076991;28;20021;-78
2021/03/17 11:06:13;;;;;;;4.32;0.35;;;7.70;99.90;;;;;;5057855;28;20036;-77
2021/03/17 11:08:40;;;;;;;1.92;0.08;;;7.90;99.90;;;;;;5059755;28;20028;-78
2021/03/17 11:11:12;;;;;;;3.13;0.00;;;7.90;99.90;;;;;;5076405;28;20050;-79
2021/03/17 11:13:46;;;;;;;2.85;0.05;;;7.90;99.90;;;;;;5076208;28;20027;-76
2021/03/17 11:16:13;;;;;;;0.98;0.20;;;7.80;99.90;;;;;;5077067;28;20431;-77
2021/03/17 11:18:48;;;;;;;1.02;0.00;;;7.60;99.90;;;;;;5076878;28;20016;-75
2021/03/17 11:21:32;;;;;;;0.75;0.00;;;7.60;99.90;;;;;;5057861;28;20033;-75
2021/03/17 11:24:03;;;;;;;2.38;0.00;;;7.60;99.90;;;;;;5059186;28;20027;-78
2021/03/17 11:26:38;;;;;;;2.25;0.00;;;7.80;99.90;;;;;;5075337;28;20116;-77
2021/03/17 11:29:20;;;;;;;1.95;0.00;;;8.00;99.90;;;;;;5076357;28;20138;-77
2021/03/17 11:31:47;;;;;;;3.10;0.00;;;8.60;99.90;;;;;;5084276;23;20099;-85
2021/03/17 11:34:14;;;;;;;1.27;0.00;;;9.00;99.90;;;;;;5075582;28;20136;-85
2021/03/17 11:36:41;;;;;;;5.05;0.20;;;9.40;99.90;;;;;;5077141;28;20021;-84
2021/03/17 11:39:10;;;;;;;2.75;0.13;;;9.60;99.90;;;;;;5075987;28;20017;-85
2021/03/17 11:41:37;;;;;;;1.02;0.00;;;9.40;99.50;;;;;;5075611;28;20040;-85
2021/03/17 11:44:03;;;;;;;0.68;0.10;;;9.20;99.90;;;;;;5075708;28;20466;-85
2021/03/17 11:46:30;;;;;;;1.95;0.00;;;9.30;99.90;;;;;;5075784;28;20013;-84
2021/03/17 11:48:56;;;;;;;3.70;0.00;;;9.30;99.90;;;;;;5077130;28;20481;-85
2021/03/17 11:51:22;;;;;;;3.53;0.05;;;9.20;99.90;;;;;;5075746;28;20066;-84
2021/03/17 11:53:48;;;;;;;0.75;0.00;;;9.20;99.90;;;;;;5076241;28;20024;-85
2021/03/17 11:56:17;;;;;;;3.95;0.00;;;9.10;99.90;;;;;;5077051;28;20107;-85
2021/03/17 11:58:43;;;;;;;1.10;0.00;;;9.30;97.90;;;;;;5074923;28;20031;-84
2021/03/17 12:01:09;;;;;;;2.47;0.47;;;9.40;96.30;;;;;;5077496;28;20036;-85
2021/03/17 12:03:34;;;;;;;0.20;0.00;;;9.50;97.60;;;;;;5076710;28;20056;-84
2021/03/17 12:06:00;;;;;;;0.82;0.00;;;12.70;98.70;;;;;;5076372;28;20389;-85
2021/03/17 12:08:26;;;;;;;0.25;0.00;;;9.10;99.90;;;;;;5074981;28;20028;-84
2021/03/17 12:10:53;;;;;;;0.08;0.00;;;9.10;99.90;;;;;;5076989;28;20055;-85
2021/03/17 12:13:19;;;;;;;0.68;0.10;;;9.10;99.90;;;;;;5076427;28;20028;-84
2021/03/17 12:15:45;;;;;;;1.05;0.20;;;8.90;99.90;;;;;;5075897;28;20031;-85
2021/03/17 12:18:11;;;;;;;0.95;0.10;;;9.00;99.90;;;;;;5076323;28;20024;-84
2021/03/17 12:20:37;;;;;;;0.10;0.00;;;11.60;99.90;;;;;;5075996;28;20024;-83
2021/03/17 12:23:03;;;;;;;3.90;0.00;;;9.90;99.90;;;;;;5074244;28;20024;-84
2021/03/17 12:25:29;;;;;;;1.75;0.05;;;11.80;99.90;;;;;;5073845;28;20111;-85
2021/03/17 12:27:55;;;;;;;1.52;0.00;;;12.60;99.90;;;;;;5075233;28;20461;-84
2021/03/17 12:30:22;;;;;;;0.22;0.00;;;9.10;97.80;;;;;;5074150;28;20025;-86
2021/03/17 12:32:49;;;;;;;1.75;0.00;;;10.90;96.30;;;;;;5075025;28;20024;-86
2021/03/17 12:35:17;;;;;;;0.43;0.10;;;10.80;93.60;;;;;;5075311;28;20064;-85
2021/03/17 12:37:44;;;;;;;0.10;0.00;;;10.60;90.60;;;;;;5075025;28;20029;-84
2021/03/17 12:40:12;;;;;;;2.53;0.00;;;10.30;89.20;;;;;;5076821;28;20020;-86
2021/03/17 12:42:41;;;;;;;1.25;0.00;;;9.90;90.40;;;;;;5074674;28;20068;-84
2021/03/17 12:45:08;;;;;;;2.40;0.00;;;12.30;91.30;;;;;;5075509;28;20013;-85
2021/03/17 12:47:35;;;;;;;1.02;0.00;;;9.30;92.30;;;;;;5075760;28;20481;-86
2021/03/17 12:50:07;;;;;;;1.70;0.50;;;9.00;93.40;;;;;;5075242;28;20020;-86
2021/03/17 12:52:33;;;;;;;1.42;0.00;;;8.80;94.20;;;;;;5075088;28;20063;-85
2021/03/17 12:54:58;;;;;;;4.22;0.20;;;8.90;94.80;;;;;;5075537;28;20025;-84
2021/03/17 12:57:24;;;;;;;0.60;0.00;;;8.80;95.10;;;;;;5075663;28;20032;-86
2021/03/17 12:59:49;;;;;;;2.10;0.00;;;8.70;96.80;;;;;;5075226;28;20016;-85
2021/03/17 13:02:15;;;;;;;0.65;0.00;;;8.60;96.00;;;;;;5074942;28;20031;-85
2021/03/17 13:04:41;;;;;;;0.65;0.00;;;8.60;96.40;;;;;;5076112;28;20090;-86
2021/03/17 13:07:06;;;;;;;3.20;0.10;;;8.60;94.60;;;;;;5077174;28;20012;-86
2021/03/17 13:09:32;;;;;;;3.83;0.00;;;8.70;95.90;;;;;;5075089;28;20016;-86